Hillsboro, NH (03244)

7:15 AM EDT on July 24, 2016 (GMT -0400)
Hillsboro Center, NH | | Change Station

Elev 1230 ft 43.15 °N, 71.93 °W | Updated 6 minutes ago

Clear
Clear
62.2 °F
Feels Like 62.2 °F
N
0.0
Wind Variable Wind from West
Gusts 0.0 mph

Today
High -- | Low -- °F
--% Chance of Precip.
Yesterday
High -- | Low -- °F
Precip. -- in
Pressure 29.99 in
Visibility 10.0 miles
Clouds Clear
Dew Point 59 °F
Humidity 90%
Rainfall 0.00 in
Snow Depth Not available.
5:30 AM 8:17 PM
Waning Gibbous, 77% visible
METAR KAFN 241052Z AUTO 00000KT 10SM CLR 16/14 A2998 RMK AO2 SLP156 T01560139
Pressure 29.99 in
Visibility 10.0 miles
Clouds Clear
Dew Point 59 °F
Humidity 90%
Rainfall 0.00 in
Snow Depth Not available.
5:30 AM 8:17 PM
Waning Gibbous, 77% visible
METAR KAFN 241052Z AUTO 00000KT 10SM CLR 16/14 A2998 RMK AO2 SLP156 T01560139

10-Day Weather Forecast

Almanac

Astronomy

Jul. 24, 2016 Rise Set
Actual Time
Civil Twilight
Nautical Twilight
Astronomical Twilight
Moon
Length of Visible Light
Length of Day
Tomorrow will be .
, % of the Moon is Illuminated

Today's Extremes

State Highs State Lows

Community

WunderPhotos

Upload Photos

1,927,048 photos uploaded!

WunderBlog® & News

Nearby

Air Quality

  Air Quality AQ Index Pollutant
Not available.

Snow Depth

Station Depth Elevation

Earthquake Activity

City Distance Mag. Time & Date
Minimum magnitude displayed is 2.5.

Coastal Water Temperatures

Place Temperature

Stations

Nearby Weather Stations

Station Location Temp. Windchill Dew Point Humidity Wind Precip. Elev Updated Type
                   

Watches & Warnings

There are currently no watches in effect.